Time;durP1;ratioP1;P1;durP2;ratioP2;P2;SDS_P1;SDS_P2;PMS_P1;PMS_P2;Temp;Humidity;BMP_temperature;BMP_pressure;BME280_temperature;BME280_humidity;BME280_pressure;Samples;Min_cycle;Max_cycle;Signal;HPM_P1;HPM_P2
2022/08/26 00:04:36;;;;;;;9.95;5.63;;;;;;;23.03;80.38;101201.88;20813552;28;20042;-60
2022/08/26 00:14:58;;;;;;;10.88;5.85;;;;;;;23.09;80.24;101201.22;20832009;28;20497;-61
2022/08/26 00:25:21;;;;;;;7.32;5.32;;;;;;;22.95;80.47;101189.44;20833942;28;20056;-60
2022/08/26 00:35:43;;;;;;;10.85;5.82;;;;;;;22.74;81.90;101180.31;20830705;28;20049;-60
2022/08/26 00:46:12;;;;;;;9.63;6.05;;;;;;;22.78;81.81;101185.13;20835671;28;20056;-60
2022/08/26 00:56:47;;;;;;;8.90;5.22;;;;;;;22.51;83.05;101189.97;20821420;28;20045;-60
2022/08/26 01:07:09;;;;;;;12.00;6.28;;;;;;;22.50;82.70;101182.97;20818966;28;20071;-60
2022/08/26 01:17:30;;;;;;;10.98;6.22;;;;;;;22.39;84.08;101185.97;20822059;28;20052;-60
2022/08/26 01:27:57;;;;;;;12.20;6.45;;;;;;;22.47;84.03;101181.50;20823029;28;20041;-60
2022/08/26 01:38:19;;;;;;;11.80;6.72;;;;;;;22.49;82.99;101182.16;20828761;28;20053;-61
2022/08/26 01:48:45;;;;;;;16.05;6.75;;;;;;;22.40;84.79;101187.63;20833421;28;20080;-60
2022/08/26 01:59:12;;;;;;;16.98;6.70;;;;;;;22.43;83.80;101189.97;20812583;28;20057;-60
2022/08/26 02:09:41;;;;;;;12.32;6.90;;;;;;;22.28;85.02;101182.78;20840548;28;20500;-60
2022/08/26 02:20:04;;;;;;;13.50;7.20;;;;;;;22.14;85.76;101183.41;20839262;28;20063;-60
2022/08/26 02:30:30;;;;;;;13.25;7.45;;;;;;;22.19;85.63;101173.16;20842766;28;20069;-60
2022/08/26 02:40:52;;;;;;;15.35;7.32;;;;;;;22.24;85.20;101176.16;20843875;28;20148;-60
2022/08/26 02:51:14;;;;;;;13.20;7.13;;;;;;;22.09;86.62;101167.16;20822987;28;20053;-60
2022/08/26 03:01:35;;;;;;;9.70;7.47;;;;;;;21.99;87.44;101175.28;20811513;28;20056;-61
2022/08/26 03:11:58;;;;;;;11.02;7.40;;;;;;;21.99;87.42;101167.31;20837167;28;20132;-60
2022/08/26 03:22:20;;;;;;;15.75;7.63;;;;;;;21.89;88.08;101163.13;20830579;28;20405;-60
2022/08/26 03:32:43;;;;;;;14.43;8.30;;;;;;;22.19;86.59;101162.53;20838335;28;20038;-60
2022/08/26 03:43:06;;;;;;;12.52;8.30;;;;;;;21.60;89.37;101166.22;20841406;28;20418;-60
2022/08/26 03:53:30;;;;;;;13.57;8.25;;;;;;;21.52;90.76;101165.34;20839675;28;20064;-60
2022/08/26 04:03:57;;;;;;;15.25;8.25;;;;;;;21.70;89.59;101166.91;20835811;28;20421;-60
2022/08/26 04:14:23;;;;;;;15.15;8.18;;;;;;;21.38;91.49;101163.28;20821387;28;20049;-60
2022/08/26 04:24:45;;;;;;;17.20;8.32;;;;;;;21.49;91.08;101157.69;20830751;28;20037;-60
2022/08/26 04:35:07;;;;;;;12.70;7.93;;;;;;;21.50;90.72;101164.66;20813844;28;20176;-60
2022/08/26 04:45:29;;;;;;;14.05;8.70;;;;;;;21.14;93.26;101165.00;20821588;28;20088;-60
2022/08/26 04:55:51;;;;;;;15.57;8.95;;;;;;;21.09;94.31;101176.06;20833870;28;20052;-60
2022/08/26 05:06:16;;;;;;;17.38;8.90;;;;;;;21.09;94.10;101162.81;20827529;28;20155;-61
2022/08/26 05:16:39;;;;;;;15.52;9.00;;;;;;;21.10;94.04;101164.47;20850814;28;20457;-60
2022/08/26 05:27:02;;;;;;;15.45;9.00;;;;;;;21.31;93.32;101169.38;20829234;28;20075;-60
2022/08/26 05:37:31;;;;;;;16.27;9.60;;;;;;;21.37;93.33;101173.06;20826464;28;20041;-60
2022/08/26 05:47:54;;;;;;;25.55;10.65;;;;;;;21.52;93.44;101165.34;20846986;28;20045;-62
2022/08/26 05:58:19;;;;;;;33.13;11.57;;;;;;;21.79;92.45;101160.63;20853387;28;20052;-62
2022/08/26 06:08:42;;;;;;;15.10;10.68;;;;;;;21.96;91.52;101177.44;20834021;28;20075;-61
2022/08/26 06:19:07;;;;;;;23.77;12.10;;;;;;;22.05;91.74;101181.75;20844467;28;20076;-61
2022/08/26 06:29:33;;;;;;;22.77;11.98;;;;;;;22.22;90.09;101178.13;20846805;28;20433;-61
2022/08/26 06:39:56;;;;;;;18.63;12.27;;;;;;;22.28;89.42;101178.31;20833727;28;20124;-63
2022/08/26 06:50:18;;;;;;;20.35;10.90;;;;;;;22.25;88.37;101188.44;20841409;28;20099;-62
2022/08/26 07:00:39;;;;;;;15.55;10.50;;;;;;;22.26;88.73;101200.72;20842324;28;20052;-61
2022/08/26 07:11:10;;;;;;;26.48;11.20;;;;;;;22.28;89.17;101214.66;20824558;28;20565;-61
2022/08/26 07:21:32;;;;;;;20.05;11.73;;;;;;;22.66;86.59;101209.56;20834233;28;20619;-61
2022/08/26 07:31:54;;;;;;;21.27;11.82;;;;;;;22.67;88.44;101213.88;20834449;28;20045;-61
2022/08/26 07:42:19;;;;;;;21.10;11.32;;;;;;;23.18;84.44;101240.94;20834647;28;20091;-61
2022/08/26 07:52:41;;;;;;;16.92;11.35;;;;;;;23.37;83.97;101245.91;20839199;28;20136;-62
2022/08/26 08:03:04;;;;;;;20.83;11.38;;;;;;;23.47;84.08;101250.03;20829710;28;20043;-61
2022/08/26 08:13:28;;;;;;;19.88;11.20;;;;;;;23.81;81.33;101253.25;20842892;28;20133;-61
2022/08/26 08:23:54;;;;;;;16.80;10.45;;;;;;;23.87;81.78;101257.91;20829991;28;20045;-60
2022/08/26 08:34:16;;;;;;;17.65;11.48;;;;;;;24.23;79.10;101250.22;20832766;28;20049;-62
2022/08/26 08:44:43;;;;;;;17.98;10.38;;;;;;;24.59;77.64;101245.00;20832983;28;20498;-59
2022/08/26 08:55:14;;;;;;;20.67;11.73;;;;;;;24.76;77.06;101246.50;20821912;28;20050;-63
2022/08/26 09:05:43;;;;;;;17.35;10.90;;;;;;;24.91;77.28;101247.38;20824774;28;20037;-60
2022/08/26 09:16:15;;;;;;;18.88;11.00;;;;;;;24.98;76.85;101243.00;20827309;28;20375;-60
2022/08/26 09:26:46;;;;;;;19.83;10.68;;;;;;;25.31;76.17;101246.19;20823612;28;20045;-59
2022/08/26 09:37:08;;;;;;;20.88;12.93;;;;;;;25.36;81.58;101263.31;20824211;28;20045;-59
2022/08/26 09:47:51;;;;;;;25.02;13.50;;;;;;;25.26;83.69;101268.09;20832010;28;20045;-60
2022/08/26 09:58:29;;;;;;;21.20;14.00;;;;;;;25.08;84.62;101259.56;20824465;28;20041;-60
2022/08/26 10:08:59;;;;;;;26.00;13.68;;;;;;;25.17;83.48;101258.53;20823206;28;20098;-60
2022/08/26 10:19:36;;;;;;;21.83;14.68;;;;;;;25.40;82.59;101245.91;20827968;28;20051;-60
2022/08/26 10:30:28;;;;;;;19.30;14.38;;;;;;;25.50;81.88;101249.13;20835309;28;20124;-61
2022/08/26 10:40:55;;;;;;;21.50;14.80;;;;;;;25.99;79.63;101247.56;20838885;28;20057;-60
2022/08/26 10:51:25;;;;;;;21.63;13.35;;;;;;;25.99;80.56;101260.91;20837487;28;20037;-60
2022/08/26 11:02:07;;;;;;;22.58;15.45;;;;;;;25.74;80.57;101255.03;20849492;28;20048;-61
2022/08/26 11:12:35;;;;;;;25.73;15.95;;;;;;;25.88;80.15;101242.69;20832653;28;20049;-61
2022/08/26 11:23:19;;;;;;;24.83;16.13;;;;;;;26.08;79.15;101235.72;20836842;28;20048;-61
2022/08/26 11:33:49;;;;;;;19.95;12.88;;;;;;;26.44;78.25;101238.22;20838001;28;20045;-61
2022/08/26 11:44:17;;;;;;;20.67;12.20;;;;;;;26.34;78.93;101218.94;20840778;28;20041;-61
2022/08/26 11:54:39;;;;;;;24.98;11.95;;;;;;;26.61;77.76;101228.94;20833856;28;20506;-61
2022/08/26 12:05:01;;;;;;;19.48;10.35;;;;;;;26.85;76.82;101222.34;20820656;28;20045;-60
2022/08/26 12:15:25;;;;;;;23.20;11.23;;;;;;;26.19;78.73;101217.34;20820890;28;20510;-61
2022/08/26 12:25:52;;;;;;;19.70;11.18;;;;;;;25.80;79.94;101211.56;20813547;28;20038;-61
2022/08/26 12:36:21;;;;;;;20.70;10.80;;;;;;;26.07;79.71;101220.69;20822684;28;20152;-61
2022/08/26 12:46:42;;;;;;;22.15;10.45;;;;;;;25.83;79.84;101205.00;20829383;28;20037;-61
2022/08/26 12:57:11;;;;;;;22.08;10.98;;;;;;;25.71;80.29;101212.63;20815970;28;20046;-61
2022/08/26 13:07:33;;;;;;;32.33;12.27;;;;;;;25.22;82.40;101213.41;20829163;28;20049;-60
2022/08/26 13:17:55;;;;;;;20.48;10.45;;;;;;;24.93;83.51;101216.00;20825045;28;20152;-61
2022/08/26 13:28:18;;;;;;;22.38;9.23;;;;;;;24.36;86.38;101221.97;20832388;28;20060;-61
2022/08/26 13:38:40;;;;;;;24.38;8.60;;;;;;;24.11;86.59;101251.63;20811475;28;20144;-62
2022/08/26 13:49:09;;;;;;;20.15;8.15;;;;;;;24.22;85.50;101267.22;20827141;28;20045;-62
2022/08/26 13:59:31;;;;;;;22.30;7.70;;;;;;;24.33;86.05;101257.78;20828095;28;20463;-61
2022/08/26 14:09:53;;;;;;;19.83;7.78;;;;;;;24.19;85.46;101268.41;20841963;28;20052;-61
2022/08/26 14:20:19;;;;;;;19.95;8.27;;;;;;;24.08;86.50;101249.31;20836727;28;20162;-60
2022/08/26 14:30:46;;;;;;;20.48;7.15;;;;;;;24.41;83.71;101240.91;20841499;28;20445;-61
2022/08/26 14:41:08;;;;;;;19.88;6.35;;;;;;;24.72;80.13;101260.38;20840628;28;20040;-60
2022/08/26 14:51:30;;;;;;;17.63;5.53;;;;;;;25.40;76.22;101244.06;20840168;28;20627;-60
2022/08/26 15:01:53;;;;;;;12.85;4.75;;;;;;;24.94;76.12;101260.38;20839863;28;20046;-61
2022/08/26 15:12:15;;;;;;;13.60;5.28;;;;;;;25.32;73.97;101262.03;20822729;28;20700;-61
2022/08/26 15:22:38;;;;;;;11.57;5.07;;;;;;;25.55;74.69;101252.91;20835617;28;20049;-61
2022/08/26 15:32:59;;;;;;;10.45;4.22;;;;;;;25.06;75.60;101245.56;20836638;28;20071;-61
2022/08/26 15:43:21;;;;;;;12.38;4.18;;;;;;;25.22;73.30;101248.09;20847375;28;20742;-61
2022/08/26 15:53:50;;;;;;;8.75;3.60;;;;;;;25.62;71.64;101235.13;20828825;28;20553;-60
2022/08/26 16:04:12;;;;;;;8.48;3.28;;;;;;;25.57;73.09;101232.19;20825788;28;20402;-61
2022/08/26 16:14:34;;;;;;;10.82;2.92;;;;;;;25.41;72.02;101252.91;20843028;28;20045;-60
2022/08/26 16:24:56;;;;;;;8.20;2.55;;;;;;;24.61;74.33;101253.63;20843347;28;20132;-61
2022/08/26 16:35:18;;;;;;;7.70;2.47;;;;;;;24.59;74.59;101271.69;20841588;28;20079;-60
2022/08/26 16:45:39;;;;;;;3.85;2.17;;;;;;;24.17;75.29;101265.06;20821398;28;20038;-60
2022/08/26 16:56:02;;;;;;;9.02;2.33;;;;;;;23.80;77.14;101274.75;20835240;28;20513;-60
2022/08/26 17:06:24;;;;;;;7.57;1.67;;;;;;;23.65;77.44;101284.41;20827976;28;20046;-60
2022/08/26 17:16:49;;;;;;;5.68;1.92;;;;;;;23.28;78.43;101283.34;20828340;28;20057;-62
2022/08/26 17:27:14;;;;;;;6.93;2.05;;;;;;;23.04;79.11;101300.13;20820886;28;20133;-61
2022/08/26 17:37:35;;;;;;;3.55;1.60;;;;;;;23.10;79.85;101326.13;20832082;28;20057;-61
2022/08/26 17:47:58;;;;;;;8.18;2.03;;;;;;;22.72;81.71;101332.03;20831061;28;20120;-60
2022/08/26 17:58:20;;;;;;;8.23;2.17;;;;;;;22.60;83.02;101333.34;20822517;28;20054;-60
2022/08/26 18:08:44;;;;;;;6.72;2.47;;;;;;;22.32;84.98;101340.88;20823961;28;20475;-60
2022/08/26 18:19:07;;;;;;;8.70;2.58;;;;;;;22.16;85.24;101343.47;20822106;28;20403;-60
2022/08/26 18:29:28;;;;;;;9.88;2.70;;;;;;;22.15;85.42;101352.44;20832006;28;20053;-60
2022/08/26 18:39:50;;;;;;;9.32;2.67;;;;;;;21.93;86.35;101363.63;20825496;28;20049;-60
2022/08/26 18:50:12;;;;;;;7.60;2.55;;;;;;;22.24;84.73;101346.19;20835267;28;20041;-60
2022/08/26 19:00:33;;;;;;;10.95;3.47;;;;;;;21.77;86.30;101352.94;20848920;28;20050;-61
2022/08/26 19:10:55;;;;;;;14.05;3.05;;;;;;;21.86;86.68;101367.91;20843315;28;20048;-61
2022/08/26 19:21:18;;;;;;;9.23;2.90;;;;;;;21.94;86.64;101378.59;20833981;28;20044;-61
2022/08/26 19:31:41;;;;;;;8.57;2.80;;;;;;;21.52;88.08;101369.66;20841303;28;20041;-61
2022/08/26 19:42:04;;;;;;;10.25;2.85;;;;;;;21.46;88.45;101365.81;20841277;28;20076;-60
2022/08/26 19:52:26;;;;;;;10.15;2.28;;;;;;;21.55;87.19;101353.41;20817805;28;20057;-61
2022/08/26 20:02:51;;;;;;;7.38;2.22;;;;;;;21.41;86.90;101351.31;20832475;28;20053;-61
2022/08/26 20:13:13;;;;;;;6.60;2.35;;;;;;;21.22;88.12;101356.84;20824312;28;20044;-63
2022/08/26 20:23:35;;;;;;;12.32;2.50;;;;;;;21.16;88.60;101352.13;20839657;28;20053;-61
2022/08/26 20:33:57;;;;;;;10.48;2.35;;;;;;;20.90;89.72;101355.69;20831315;28;20136;-61
2022/08/26 20:44:20;;;;;;;7.78;2.20;;;;;;;21.02;88.84;101370.41;20825795;28;20171;-62
2022/08/26 20:54:42;;;;;;;9.15;1.95;;;;;;;20.78;90.08;101367.50;20828938;28;20055;-61
2022/08/26 21:05:05;;;;;;;12.27;2.13;;;;;;;20.88;89.41;101373.59;20826776;28;20045;-62
2022/08/26 21:15:26;;;;;;;13.50;2.42;;;;;;;20.68;88.88;101378.16;20824286;28;20187;-61
2022/08/26 21:25:48;;;;;;;8.73;1.98;;;;;;;20.89;87.46;101386.69;20832151;28;20044;-61
2022/08/26 21:36:11;;;;;;;9.02;1.60;;;;;;;20.74;87.49;101388.16;20826894;28;20132;-64
2022/08/26 21:46:36;;;;;;;12.43;2.00;;;;;;;20.54;88.35;101405.16;20828392;28;20041;-61
2022/08/26 21:56:57;;;;;;;10.13;1.73;;;;;;;20.49;88.25;101393.34;20825190;28;20057;-61
2022/08/26 22:07:20;;;;;;;8.88;1.60;;;;;;;20.57;87.87;101396.91;20820491;28;20045;-61
2022/08/26 22:17:41;;;;;;;5.63;1.23;;;;;;;20.57;86.32;101402.22;20807459;28;20457;-60
2022/08/26 22:28:03;;;;;;;7.95;1.55;;;;;;;20.38;86.99;101399.66;20842961;28;20140;-60
2022/08/26 22:38:25;;;;;;;11.07;1.90;;;;;;;20.46;86.36;101402.44;20840239;28;20049;-61
2022/08/26 22:48:47;;;;;;;4.75;1.20;;;;;;;20.47;85.99;101403.25;20842384;28;20053;-61
2022/08/26 22:59:15;;;;;;;3.47;1.08;;;;;;;20.39;85.91;101414.56;20846461;28;20115;-60
2022/08/26 23:09:36;;;;;;;6.47;1.20;;;;;;;20.12;85.52;101400.50;20828357;28;20049;-63
2022/08/26 23:19:58;;;;;;;10.48;1.15;;;;;;;20.28;84.20;101399.88;20841737;28;20048;-61
2022/08/26 23:30:24;;;;;;;4.40;1.20;;;;;;;20.08;84.64;101400.94;20828030;28;20063;-61
2022/08/26 23:40:47;;;;;;;4.55;1.10;;;;;;;20.19;83.43;101396.28;20835737;28;20670;-62
